sensor_id;sensor_type;location;lat;lon;timestamp;pressure;altitude;pressure_sealevel;temperature;humidity
48035;BME280;33812;46.480;6.834;2023-11-21T00:03:48;93305.50;;;21.65;43.18
48035;BME280;33812;46.480;6.834;2023-11-21T00:07:52;93306.44;;;21.61;43.31
48035;BME280;33812;46.480;6.834;2023-11-21T00:11:54;93304.75;;;21.64;43.21
48035;BME280;33812;46.480;6.834;2023-11-21T00:15:56;93303.66;;;21.61;43.27
48035;BME280;33812;46.480;6.834;2023-11-21T00:19:58;93304.13;;;21.60;43.03
48035;BME280;33812;46.480;6.834;2023-11-21T00:24:01;93297.69;;;21.63;42.96
48035;BME280;33812;46.480;6.834;2023-11-21T00:28:03;93299.69;;;21.62;42.91
48035;BME280;33812;46.480;6.834;2023-11-21T00:32:07;93299.38;;;21.60;42.84
48035;BME280;33812;46.480;6.834;2023-11-21T00:36:09;93298.59;;;21.60;42.86
48035;BME280;33812;46.480;6.834;2023-11-21T00:40:13;93292.16;;;21.63;42.77
48035;BME280;33812;46.480;6.834;2023-11-21T00:44:15;93297.06;;;21.59;42.94
48035;BME280;33812;46.480;6.834;2023-11-21T00:48:17;93302.47;;;21.62;42.50
48035;BME280;33812;46.480;6.834;2023-11-21T00:52:19;93301.03;;;21.58;42.65
48035;BME280;33812;46.480;6.834;2023-11-21T00:56:22;93298.13;;;21.61;42.72
48035;BME280;33812;46.480;6.834;2023-11-21T01:00:24;93312.09;;;21.58;42.86
48035;BME280;33812;46.480;6.834;2023-11-21T01:04:26;93308.28;;;21.65;42.79
48035;BME280;33812;46.480;6.834;2023-11-21T01:08:28;93306.09;;;21.59;42.96
48035;BME280;33812;46.480;6.834;2023-11-21T01:12:31;93305.69;;;21.61;42.72
48035;BME280;33812;46.480;6.834;2023-11-21T01:16:33;93300.91;;;21.61;42.69
48035;BME280;33812;46.480;6.834;2023-11-21T01:20:35;93297.94;;;21.56;42.81
48035;BME280;33812;46.480;6.834;2023-11-21T01:24:37;93300.16;;;21.61;42.73
48035;BME280;33812;46.480;6.834;2023-11-21T01:28:40;93295.69;;;21.64;42.62
48035;BME280;33812;46.480;6.834;2023-11-21T01:32:41;93288.63;;;21.62;42.69
48035;BME280;33812;46.480;6.834;2023-11-21T01:36:45;93283.09;;;21.62;42.60
48035;BME280;33812;46.480;6.834;2023-11-21T01:40:48;93277.13;;;21.64;42.48
48035;BME280;33812;46.480;6.834;2023-11-21T01:44:51;93265.41;;;21.60;42.78
48035;BME280;33812;46.480;6.834;2023-11-21T01:48:54;93258.81;;;21.57;42.70
48035;BME280;33812;46.480;6.834;2023-11-21T01:52:57;93250.38;;;21.61;42.58
48035;BME280;33812;46.480;6.834;2023-11-21T01:57:00;93254.66;;;21.62;42.46
48035;BME280;33812;46.480;6.834;2023-11-21T02:01:05;93237.63;;;21.64;42.41
48035;BME280;33812;46.480;6.834;2023-11-21T02:05:07;93230.22;;;21.60;42.35
48035;BME280;33812;46.480;6.834;2023-11-21T02:09:09;93227.47;;;21.60;42.31
48035;BME280;33812;46.480;6.834;2023-11-21T02:13:15;93232.53;;;21.62;42.32
48035;BME280;33812;46.480;6.834;2023-11-21T02:17:19;93233.13;;;21.57;42.20
48035;BME280;33812;46.480;6.834;2023-11-21T02:21:21;93235.75;;;21.60;42.35
48035;BME280;33812;46.480;6.834;2023-11-21T02:25:24;93237.75;;;21.60;42.08
48035;BME280;33812;46.480;6.834;2023-11-21T02:29:27;93233.13;;;21.57;42.18
48035;BME280;33812;46.480;6.834;2023-11-21T02:33:29;93233.91;;;21.57;42.20
48035;BME280;33812;46.480;6.834;2023-11-21T02:37:34;93222.72;;;21.61;42.12
48035;BME280;33812;46.480;6.834;2023-11-21T02:41:37;93226.06;;;21.56;42.08
48035;BME280;33812;46.480;6.834;2023-11-21T02:45:39;93225.16;;;21.59;42.19
48035;BME280;33812;46.480;6.834;2023-11-21T02:49:42;93222.84;;;21.57;42.08
48035;BME280;33812;46.480;6.834;2023-11-21T02:53:45;93216.53;;;21.57;42.07
48035;BME280;33812;46.480;6.834;2023-11-21T02:57:48;93199.31;;;21.53;42.22
48035;BME280;33812;46.480;6.834;2023-11-21T03:01:51;93207.34;;;21.60;41.93
48035;BME280;33812;46.480;6.834;2023-11-21T03:05:53;93201.16;;;21.56;41.92
48035;BME280;33812;46.480;6.834;2023-11-21T03:09:54;93200.88;;;21.54;42.12
48035;BME280;33812;46.480;6.834;2023-11-21T03:13:57;93204.84;;;21.53;42.13
48035;BME280;33812;46.480;6.834;2023-11-21T03:17:59;93213.00;;;21.56;42.12
48035;BME280;33812;46.480;6.834;2023-11-21T03:22:01;93210.56;;;21.58;42.10
48035;BME280;33812;46.480;6.834;2023-11-21T03:26:04;93200.72;;;21.57;42.03
48035;BME280;33812;46.480;6.834;2023-11-21T03:30:11;93207.66;;;21.62;42.02
48035;BME280;33812;46.480;6.834;2023-11-21T03:34:16;93204.25;;;21.58;41.93
48035;BME280;33812;46.480;6.834;2023-11-21T03:38:18;93203.63;;;21.54;41.90
48035;BME280;33812;46.480;6.834;2023-11-21T03:42:20;93199.63;;;21.55;41.72
48035;BME280;33812;46.480;6.834;2023-11-21T03:46:23;93207.78;;;21.58;41.74
48035;BME280;33812;46.480;6.834;2023-11-21T03:50:25;93203.19;;;21.55;41.85
48035;BME280;33812;46.480;6.834;2023-11-21T03:54:27;93199.97;;;21.57;41.60
48035;BME280;33812;46.480;6.834;2023-11-21T03:58:29;93202.41;;;21.55;41.69
48035;BME280;33812;46.480;6.834;2023-11-21T04:02:32;93203.50;;;21.57;41.75
48035;BME280;33812;46.480;6.834;2023-11-21T04:06:34;93213.78;;;21.57;41.58
48035;BME280;33812;46.480;6.834;2023-11-21T04:10:37;93210.25;;;21.56;41.63
48035;BME280;33812;46.480;6.834;2023-11-21T04:14:40;93214.09;;;21.59;41.73
48035;BME280;33812;46.480;6.834;2023-11-21T04:18:43;93218.41;;;21.60;41.60
48035;BME280;33812;46.480;6.834;2023-11-21T04:22:45;93218.06;;;21.58;41.48
48035;BME280;33812;46.480;6.834;2023-11-21T04:26:47;93219.44;;;21.53;41.66
48035;BME280;33812;46.480;6.834;2023-11-21T04:30:48;93222.22;;;21.53;41.43
48035;BME280;33812;46.480;6.834;2023-11-21T04:34:52;93228.97;;;21.52;41.54
48035;BME280;33812;46.480;6.834;2023-11-21T04:38:53;93234.06;;;21.54;41.40
48035;BME280;33812;46.480;6.834;2023-11-21T04:42:55;93239.84;;;21.46;41.47
48035;BME280;33812;46.480;6.834;2023-11-21T04:46:57;93228.97;;;21.52;41.29
48035;BME280;33812;46.480;6.834;2023-11-21T04:51:00;93222.34;;;21.49;41.49
48035;BME280;33812;46.480;6.834;2023-11-21T04:55:03;93224.19;;;21.53;41.47
48035;BME280;33812;46.480;6.834;2023-11-21T04:59:07;93228.19;;;21.52;41.34
48035;BME280;33812;46.480;6.834;2023-11-21T05:03:09;93226.63;;;21.50;41.34
48035;BME280;33812;46.480;6.834;2023-11-21T05:07:13;93224.03;;;21.47;41.53
48035;BME280;33812;46.480;6.834;2023-11-21T05:11:23;93216.16;;;21.45;41.44
48035;BME280;33812;46.480;6.834;2023-11-21T05:15:25;93218.50;;;21.47;41.22
48035;BME280;33812;46.480;6.834;2023-11-21T05:19:28;93213.13;;;21.43;41.25
48035;BME280;33812;46.480;6.834;2023-11-21T05:23:31;93227.97;;;21.36;41.27
48035;BME280;33812;46.480;6.834;2023-11-21T05:27:34;93221.41;;;21.43;41.29
48035;BME280;33812;46.480;6.834;2023-11-21T05:31:36;93232.94;;;21.42;41.24
48035;BME280;33812;46.480;6.834;2023-11-21T05:35:38;93234.91;;;21.41;41.01
48035;BME280;33812;46.480;6.834;2023-11-21T05:39:41;93232.75;;;21.45;41.16
48035;BME280;33812;46.480;6.834;2023-11-21T05:43:43;93227.22;;;21.45;41.05
48035;BME280;33812;46.480;6.834;2023-11-21T05:47:46;93228.00;;;21.46;41.21
48035;BME280;33812;46.480;6.834;2023-11-21T05:51:48;93225.69;;;21.44;41.21
48035;BME280;33812;46.480;6.834;2023-11-21T05:55:51;93230.44;;;21.44;41.11
48035;BME280;33812;46.480;6.834;2023-11-21T05:59:53;93233.69;;;21.42;40.73
48035;BME280;33812;46.480;6.834;2023-11-21T06:03:55;93237.09;;;21.46;40.83
48035;BME280;33812;46.480;6.834;2023-11-21T06:07:57;93237.69;;;21.41;40.73
48035;BME280;33812;46.480;6.834;2023-11-21T06:12:02;93238.28;;;21.45;40.93
48035;BME280;33812;46.480;6.834;2023-11-21T06:16:05;93241.25;;;21.51;40.93
48035;BME280;33812;46.480;6.834;2023-11-21T06:20:10;93241.44;;;21.57;41.40
48035;BME280;33812;46.480;6.834;2023-11-21T06:24:14;93240.06;;;21.61;41.32
48035;BME280;33812;46.480;6.834;2023-11-21T06:28:18;93235.31;;;21.62;41.53
48035;BME280;33812;46.480;6.834;2023-11-21T06:32:22;93236.97;;;21.59;41.44
48035;BME280;33812;46.480;6.834;2023-11-21T06:36:24;93241.88;;;21.55;41.27
48035;BME280;33812;46.480;6.834;2023-11-21T06:40:27;93242.97;;;21.58;40.98
48035;BME280;33812;46.480;6.834;2023-11-21T06:44:31;93262.59;;;21.50;41.13
48035;BME280;33812;46.480;6.834;2023-11-21T06:48:35;93266.72;;;21.46;40.97
48035;BME280;33812;46.480;6.834;2023-11-21T06:52:38;93270.88;;;21.50;40.74
48035;BME280;33812;46.480;6.834;2023-11-21T06:56:40;93269.81;;;21.48;40.67
48035;BME280;33812;46.480;6.834;2023-11-21T07:00:44;93273.34;;;21.48;40.85
48035;BME280;33812;46.480;6.834;2023-11-21T07:04:48;93280.41;;;21.49;41.36
48035;BME280;33812;46.480;6.834;2023-11-21T07:08:52;93281.00;;;21.44;41.23
48035;BME280;33812;46.480;6.834;2023-11-21T07:12:53;93284.09;;;21.46;40.96
48035;BME280;33812;46.480;6.834;2023-11-21T07:16:59;93278.22;;;21.44;40.74
48035;BME280;33812;46.480;6.834;2023-11-21T07:21:01;93283.63;;;21.48;40.79
48035;BME280;33812;46.480;6.834;2023-11-21T07:25:04;93281.06;;;21.54;40.38
48035;BME280;33812;46.480;6.834;2023-11-21T07:29:07;93287.91;;;21.49;40.34
48035;BME280;33812;46.480;6.834;2023-11-21T07:33:11;93280.47;;;21.59;40.45
48035;BME280;33812;46.480;6.834;2023-11-21T07:37:14;93279.22;;;21.60;41.52
48035;BME280;33812;46.480;6.834;2023-11-21T07:41:16;93283.09;;;21.62;40.87
48035;BME280;33812;46.480;6.834;2023-11-21T07:45:19;93287.84;;;21.62;41.73
48035;BME280;33812;46.480;6.834;2023-11-21T07:49:24;93284.16;;;21.65;41.43
48035;BME280;33812;46.480;6.834;2023-11-21T07:53:27;93286.63;;;21.63;40.75
48035;BME280;33812;46.480;6.834;2023-11-21T07:57:30;93276.97;;;21.68;40.73
48035;BME280;33812;46.480;6.834;2023-11-21T08:01:32;93282.97;;;21.66;41.03
48035;BME280;33812;46.480;6.834;2023-11-21T08:05:36;93275.41;;;21.67;41.28
48035;BME280;33812;46.480;6.834;2023-11-21T08:09:38;93284.81;;;21.69;41.38
48035;BME280;33812;46.480;6.834;2023-11-21T08:13:39;93289.56;;;21.69;41.18
48035;BME280;33812;46.480;6.834;2023-11-21T08:17:41;93279.16;;;21.73;41.06
48035;BME280;33812;46.480;6.834;2023-11-21T08:21:44;93281.28;;;21.69;41.83
48035;BME280;33812;46.480;6.834;2023-11-21T08:25:47;93289.75;;;21.74;41.18
48035;BME280;33812;46.480;6.834;2023-11-21T08:29:49;93299.13;;;21.77;41.62
48035;BME280;33812;46.480;6.834;2023-11-21T08:33:51;93303.59;;;21.74;41.45
48035;BME280;33812;46.480;6.834;2023-11-21T08:37:54;93307.56;;;21.73;41.54
48035;BME280;33812;46.480;6.834;2023-11-21T08:41:57;93301.91;;;21.77;41.41
48035;BME280;33812;46.480;6.834;2023-11-21T08:45:58;93299.66;;;21.85;40.79
48035;BME280;33812;46.480;6.834;2023-11-21T08:50:00;93296.91;;;21.85;40.66
48035;BME280;33812;46.480;6.834;2023-11-21T08:54:04;93301.84;;;21.90;40.85
48035;BME280;33812;46.480;6.834;2023-11-21T08:58:08;93297.22;;;21.87;41.00
48035;BME280;33812;46.480;6.834;2023-11-21T09:02:10;93290.44;;;21.88;41.23
48035;BME280;33812;46.480;6.834;2023-11-21T09:06:12;93291.97;;;21.89;41.33
48035;BME280;33812;46.480;6.834;2023-11-21T09:10:16;93288.16;;;21.86;41.07
48035;BME280;33812;46.480;6.834;2023-11-21T09:14:17;93291.38;;;21.85;41.23
48035;BME280;33812;46.480;6.834;2023-11-21T09:18:19;93294.91;;;21.85;41.13
48035;BME280;33812;46.480;6.834;2023-11-21T09:22:21;93303.03;;;21.80;41.16
48035;BME280;33812;46.480;6.834;2023-11-21T09:26:26;93305.78;;;21.80;41.33
48035;BME280;33812;46.480;6.834;2023-11-21T09:30:28;93313.41;;;21.76;41.19
48035;BME280;33812;46.480;6.834;2023-11-21T09:34:31;93316.72;;;21.83;41.12
48035;BME280;33812;46.480;6.834;2023-11-21T09:38:33;93305.78;;;21.80;41.20
48035;BME280;33812;46.480;6.834;2023-11-21T09:42:39;93308.88;;;21.82;41.40
48035;BME280;33812;46.480;6.834;2023-11-21T09:46:43;93300.75;;;21.88;41.08
48035;BME280;33812;46.480;6.834;2023-11-21T09:50:50;93308.59;;;21.89;41.27
48035;BME280;33812;46.480;6.834;2023-11-21T09:54:53;93308.59;;;21.89;41.21
48035;BME280;33812;46.480;6.834;2023-11-21T09:58:56;93316.88;;;21.89;41.30
48035;BME280;33812;46.480;6.834;2023-11-21T10:03:04;93307.69;;;21.92;41.53
48035;BME280;33812;46.480;6.834;2023-11-21T10:07:06;93301.06;;;21.90;41.95
48035;BME280;33812;46.480;6.834;2023-11-21T10:11:10;93302.16;;;21.92;41.83
48035;BME280;33812;46.480;6.834;2023-11-21T10:15:16;93294.16;;;21.94;41.95
48035;BME280;33812;46.480;6.834;2023-11-21T10:19:19;93298.16;;;21.93;41.73
48035;BME280;33812;46.480;6.834;2023-11-21T10:23:24;93299.69;;;21.94;41.42
48035;BME280;33812;46.480;6.834;2023-11-21T10:27:27;93298.94;;;21.94;41.26
48035;BME280;33812;46.480;6.834;2023-11-21T10:31:30;93292.03;;;21.98;41.22
48035;BME280;33812;46.480;6.834;2023-11-21T10:35:45;93292.94;;;21.95;41.41
48035;BME280;33812;46.480;6.834;2023-11-21T10:39:51;93300.84;;;22.06;41.91
48035;BME280;33812;46.480;6.834;2023-11-21T10:43:53;93305.44;;;22.09;42.28
48035;BME280;33812;46.480;6.834;2023-11-21T10:47:58;93298.81;;;22.07;42.08
48035;BME280;33812;46.480;6.834;2023-11-21T10:52:00;93296.84;;;22.07;42.26
48035;BME280;33812;46.480;6.834;2023-11-21T10:56:05;93294.38;;;22.09;42.25
48035;BME280;33812;46.480;6.834;2023-11-21T11:00:09;93299.78;;;22.13;42.11
48035;BME280;33812;46.480;6.834;2023-11-21T11:04:15;93296.06;;;22.07;42.00
48035;BME280;33812;46.480;6.834;2023-11-21T11:08:19;93299.91;;;22.09;42.21
48035;BME280;33812;46.480;6.834;2023-11-21T11:12:26;93290.38;;;22.10;41.87
48035;BME280;33812;46.480;6.834;2023-11-21T11:16:28;93285.94;;;22.13;42.11
48035;BME280;33812;46.480;6.834;2023-11-21T11:20:34;93282.25;;;22.16;42.04
48035;BME280;33812;46.480;6.834;2023-11-21T11:24:48;93289.91;;;22.12;41.95
48035;BME280;33812;46.480;6.834;2023-11-21T11:28:55;93278.72;;;22.16;42.07
48035;BME280;33812;46.480;6.834;2023-11-21T11:33:07;93274.72;;;22.17;42.15
48035;BME280;33812;46.480;6.834;2023-11-21T11:37:12;93276.44;;;22.24;41.86
48035;BME280;33812;46.480;6.834;2023-11-21T11:41:25;93265.22;;;22.27;42.14
48035;BME280;33812;46.480;6.834;2023-11-21T11:45:32;93266.75;;;22.28;42.60
48035;BME280;33812;46.480;6.834;2023-11-21T11:49:35;93271.22;;;22.35;42.34
48035;BME280;33812;46.480;6.834;2023-11-21T11:53:40;93270.63;;;22.31;42.73
48035;BME280;33812;46.480;6.834;2023-11-21T11:57:42;93273.66;;;22.33;42.84
48035;BME280;33812;46.480;6.834;2023-11-21T12:01:45;93270.47;;;22.34;42.94
48035;BME280;33812;46.480;6.834;2023-11-21T12:05:49;93269.09;;;22.39;42.60
48035;BME280;33812;46.480;6.834;2023-11-21T12:09:59;93265.78;;;22.73;41.32
48035;BME280;33812;46.480;6.834;2023-11-21T12:14:01;93266.19;;;22.43;41.77
48035;BME280;33812;46.480;6.834;2023-11-21T12:18:05;93260.50;;;22.46;42.76
48035;BME280;33812;46.480;6.834;2023-11-21T12:22:07;93258.19;;;22.45;42.79
48035;BME280;33812;46.480;6.834;2023-11-21T12:26:17;93260.03;;;22.48;42.67
48035;BME280;33812;46.480;6.834;2023-11-21T12:30:21;93260.22;;;22.82;37.80
48035;BME280;33812;46.480;6.834;2023-11-21T12:34:23;93259.56;;;22.50;41.58
48035;BME280;33812;46.480;6.834;2023-11-21T12:38:25;93259.22;;;22.38;41.29
48035;BME280;33812;46.480;6.834;2023-11-21T12:42:36;93259.69;;;22.37;41.59
48035;BME280;33812;46.480;6.834;2023-11-21T12:46:41;93265.69;;;22.35;41.52
48035;BME280;33812;46.480;6.834;2023-11-21T12:50:45;93272.47;;;22.34;41.47
48035;BME280;33812;46.480;6.834;2023-11-21T12:54:49;93275.22;;;22.34;41.88
48035;BME280;33812;46.480;6.834;2023-11-21T12:58:54;93280.75;;;22.34;42.09
48035;BME280;33812;46.480;6.834;2023-11-21T13:02:58;93278.13;;;22.30;42.55
48035;BME280;33812;46.480;6.834;2023-11-21T13:07:03;93277.69;;;22.32;42.51
48035;BME280;33812;46.480;6.834;2023-11-21T13:11:07;93275.06;;;22.28;42.76
48035;BME280;33812;46.480;6.834;2023-11-21T13:15:14;93269.84;;;22.30;43.17
48035;BME280;33812;46.480;6.834;2023-11-21T13:19:16;93271.50;;;22.28;43.20
48035;BME280;33812;46.480;6.834;2023-11-21T13:23:19;93274.59;;;22.30;43.25
48035;BME280;33812;46.480;6.834;2023-11-21T13:27:23;93269.50;;;22.28;43.26
48035;BME280;33812;46.480;6.834;2023-11-21T13:31:27;93278.91;;;22.31;43.42
48035;BME280;33812;46.480;6.834;2023-11-21T13:35:34;93290.28;;;22.33;43.34
48035;BME280;33812;46.480;6.834;2023-11-21T13:39:38;93291.53;;;22.32;43.35
48035;BME280;33812;46.480;6.834;2023-11-21T13:43:45;93297.06;;;22.32;43.29
48035;BME280;33812;46.480;6.834;2023-11-21T13:47:54;93294.59;;;22.34;43.39
48035;BME280;33812;46.480;6.834;2023-11-21T13:51:58;93304.44;;;22.35;43.36
48035;BME280;33812;46.480;6.834;2023-11-21T13:56:03;93301.84;;;22.41;43.04
48035;BME280;33812;46.480;6.834;2023-11-21T14:00:06;93300.31;;;22.40;43.34
48035;BME280;33812;46.480;6.834;2023-11-21T14:04:12;93301.25;;;22.46;43.30
48035;BME280;33812;46.480;6.834;2023-11-21T14:08:20;93298.78;;;22.48;43.15
48035;BME280;33812;46.480;6.834;2023-11-21T14:12:23;93297.22;;;22.47;43.08
48035;BME280;33812;46.480;6.834;2023-11-21T14:16:25;93307.84;;;22.49;43.18
48035;BME280;33812;46.480;6.834;2023-11-21T14:20:29;93303.22;;;22.45;42.73
48035;BME280;33812;46.480;6.834;2023-11-21T14:24:30;93301.56;;;22.48;43.50
48035;BME280;33812;46.480;6.834;2023-11-21T14:28:32;93312.31;;;22.46;43.06
48035;BME280;33812;46.480;6.834;2023-11-21T14:32:36;93315.72;;;22.50;42.99
48035;BME280;33812;46.480;6.834;2023-11-21T14:36:40;93316.75;;;22.43;42.64
48035;BME280;33812;46.480;6.834;2023-11-21T14:40:43;93316.16;;;22.49;42.40
48035;BME280;33812;46.480;6.834;2023-11-21T14:44:45;93312.78;;;22.44;42.42
48035;BME280;33812;46.480;6.834;2023-11-21T14:48:47;93313.84;;;22.47;42.39
48035;BME280;33812;46.480;6.834;2023-11-21T14:53:00;93316.63;;;22.47;42.18
48035;BME280;33812;46.480;6.834;2023-11-21T14:57:05;93317.06;;;22.45;42.34
48035;BME280;33812;46.480;6.834;2023-11-21T15:01:10;93312.78;;;22.44;42.34
48035;BME280;33812;46.480;6.834;2023-11-21T15:05:11;93320.63;;;22.46;42.00
48035;BME280;33812;46.480;6.834;2023-11-21T15:09:17;93311.53;;;22.45;41.97
48035;BME280;33812;46.480;6.834;2023-11-21T15:13:35;93321.69;;;22.49;41.60
48035;BME280;33812;46.480;6.834;2023-11-21T15:17:37;93328.16;;;22.45;41.82
48035;BME280;33812;46.480;6.834;2023-11-21T15:21:39;93329.06;;;22.42;41.92
48035;BME280;33812;46.480;6.834;2023-11-21T15:25:43;93325.53;;;22.42;41.79
48035;BME280;33812;46.480;6.834;2023-11-21T15:29:46;93332.63;;;22.43;41.80
48035;BME280;33812;46.480;6.834;2023-11-21T15:33:50;93339.22;;;22.45;41.53
48035;BME280;33812;46.480;6.834;2023-11-21T15:37:52;93337.38;;;22.42;41.63
48035;BME280;33812;46.480;6.834;2023-11-21T15:41:55;93338.75;;;22.38;41.46
48035;BME280;33812;46.480;6.834;2023-11-21T15:45:57;93348.75;;;22.35;41.54
48035;BME280;33812;46.480;6.834;2023-11-21T15:49:58;93352.75;;;22.34;41.63
48035;BME280;33812;46.480;6.834;2023-11-21T15:54:01;93356.72;;;22.33;41.68
48035;BME280;33812;46.480;6.834;2023-11-21T15:58:05;93356.84;;;22.29;41.44
48035;BME280;33812;46.480;6.834;2023-11-21T16:02:07;93360.53;;;22.26;41.51
48035;BME280;33812;46.480;6.834;2023-11-21T16:06:10;93356.72;;;22.24;41.62
48035;BME280;33812;46.480;6.834;2023-11-21T16:10:12;93358.97;;;22.16;41.47
48035;BME280;33812;46.480;6.834;2023-11-21T16:14:16;93367.59;;;22.18;41.77
48035;BME280;33812;46.480;6.834;2023-11-21T16:18:20;93370.19;;;22.12;41.67
48035;BME280;33812;46.480;6.834;2023-11-21T16:22:24;93378.94;;;22.10;41.63
48035;BME280;33812;46.480;6.834;2023-11-21T16:26:28;93381.84;;;22.07;41.55
48035;BME280;33812;46.480;6.834;2023-11-21T16:30:32;93377.84;;;22.08;41.55
48035;BME280;33812;46.480;6.834;2023-11-21T16:34:35;93380.63;;;22.08;41.47
48035;BME280;33812;46.480;6.834;2023-11-21T16:38:37;93380.44;;;22.02;41.60
48035;BME280;33812;46.480;6.834;2023-11-21T16:42:39;93381.66;;;22.01;41.58
48035;BME280;33812;46.480;6.834;2023-11-21T16:46:44;93382.88;;;22.00;41.65
48035;BME280;33812;46.480;6.834;2023-11-21T16:50:47;93380.75;;;22.04;42.64
48035;BME280;33812;46.480;6.834;2023-11-21T16:54:50;93382.16;;;22.09;42.07
48035;BME280;33812;46.480;6.834;2023-11-21T16:58:52;93386.16;;;22.08;41.59
48035;BME280;33812;46.480;6.834;2023-11-21T17:02:55;93387.38;;;22.07;41.76
48035;BME280;33812;46.480;6.834;2023-11-21T17:06:59;93398.13;;;22.05;41.70
48035;BME280;33812;46.480;6.834;2023-11-21T17:11:02;93401.53;;;22.09;41.88
48035;BME280;33812;46.480;6.834;2023-11-21T17:15:09;93403.97;;;22.07;41.85
48035;BME280;33812;46.480;6.834;2023-11-21T17:19:12;93414.91;;;22.10;42.02
48035;BME280;33812;46.480;6.834;2023-11-21T17:23:14;93427.66;;;22.08;41.90
48035;BME280;33812;46.480;6.834;2023-11-21T17:27:16;93433.06;;;22.12;41.89
48035;BME280;33812;46.480;6.834;2023-11-21T17:31:20;93432.63;;;22.13;41.81
48035;BME280;33812;46.480;6.834;2023-11-21T17:35:24;93441.84;;;22.10;41.84
48035;BME280;33812;46.480;6.834;2023-11-21T17:39:25;93435.06;;;22.11;42.09
48035;BME280;33812;46.480;6.834;2023-11-21T17:43:27;93438.75;;;22.08;41.75
48035;BME280;33812;46.480;6.834;2023-11-21T17:47:29;93444.59;;;22.10;41.97
48035;BME280;33812;46.480;6.834;2023-11-21T17:51:37;93443.03;;;22.09;41.90
48035;BME280;33812;46.480;6.834;2023-11-21T17:55:39;93441.38;;;22.12;42.69
48035;BME280;33812;46.480;6.834;2023-11-21T17:59:41;93443.38;;;22.11;41.45
48035;BME280;33812;46.480;6.834;2023-11-21T18:03:43;93448.91;;;22.11;41.25
48035;BME280;33812;46.480;6.834;2023-11-21T18:07:46;93447.03;;;22.08;41.53
48035;BME280;33812;46.480;6.834;2023-11-21T18:11:48;93457.47;;;22.04;41.20
48035;BME280;33812;46.480;6.834;2023-11-21T18:19:54;93468.22;;;22.02;41.28
48035;BME280;33812;46.480;6.834;2023-11-21T18:23:57;93467.88;;;22.00;41.36
48035;BME280;33812;46.480;6.834;2023-11-21T18:27:59;93466.34;;;21.98;41.37
48035;BME280;33812;46.480;6.834;2023-11-21T18:32:01;93466.94;;;21.93;41.58
48035;BME280;33812;46.480;6.834;2023-11-21T18:36:09;93469.03;;;21.89;41.58
48035;BME280;33812;46.480;6.834;2023-11-21T18:40:13;93471.50;;;21.87;41.72
48035;BME280;33812;46.480;6.834;2023-11-21T18:44:16;93463.38;;;21.93;42.27
48035;BME280;33812;46.480;6.834;2023-11-21T18:48:17;93475.69;;;21.92;42.67
48035;BME280;33812;46.480;6.834;2023-11-21T18:52:20;93478.25;;;21.86;42.50
48035;BME280;33812;46.480;6.834;2023-11-21T18:56:25;93486.28;;;21.93;42.27
48035;BME280;33812;46.480;6.834;2023-11-21T19:00:27;93482.75;;;21.93;42.67
48035;BME280;33812;46.480;6.834;2023-11-21T19:04:29;93482.44;;;21.91;42.63
48035;BME280;33812;46.480;6.834;2023-11-21T19:08:30;93492.06;;;21.86;42.68
48035;BME280;33812;46.480;6.834;2023-11-21T19:12:34;93501.50;;;21.89;42.70
48035;BME280;33812;46.480;6.834;2023-11-21T19:16:38;93502.56;;;21.91;43.92
48035;BME280;33812;46.480;6.834;2023-11-21T19:20:41;93496.06;;;21.85;43.32
48035;BME280;33812;46.480;6.834;2023-11-21T19:24:43;93494.50;;;21.84;42.78
48035;BME280;33812;46.480;6.834;2023-11-21T19:28:46;93502.59;;;21.78;42.84
48035;BME280;33812;46.480;6.834;2023-11-21T19:32:48;93506.59;;;21.77;42.60
48035;BME280;33812;46.480;6.834;2023-11-21T19:36:50;93513.78;;;21.74;42.58
48035;BME280;33812;46.480;6.834;2023-11-21T19:40:52;93514.13;;;21.77;42.39
48035;BME280;33812;46.480;6.834;2023-11-21T19:44:56;93516.22;;;21.72;41.83
48035;BME280;33812;46.480;6.834;2023-11-21T19:48:57;93525.88;;;21.68;42.36
48035;BME280;33812;46.480;6.834;2023-11-21T19:53:02;93527.63;;;21.74;44.32
48035;BME280;33812;46.480;6.834;2023-11-21T19:57:04;93534.47;;;21.83;43.17
48035;BME280;33812;46.480;6.834;2023-11-21T20:01:09;93543.69;;;21.80;43.84
48035;BME280;33812;46.480;6.834;2023-11-21T20:05:11;93546.09;;;21.78;44.01
48035;BME280;33812;46.480;6.834;2023-11-21T20:09:15;93556.81;;;21.76;45.13
48035;BME280;33812;46.480;6.834;2023-11-21T20:13:17;93555.72;;;21.73;45.02
48035;BME280;33812;46.480;6.834;2023-11-21T20:17:20;93555.50;;;21.80;44.90
48035;BME280;33812;46.480;6.834;2023-11-21T20:21:23;93563.25;;;21.72;44.82
48035;BME280;33812;46.480;6.834;2023-11-21T20:25:27;93577.41;;;21.74;44.94
48035;BME280;33812;46.480;6.834;2023-11-21T20:29:30;93568.13;;;21.68;45.07
48035;BME280;33812;46.480;6.834;2023-11-21T20:33:36;93568.56;;;21.67;45.16
48035;BME280;33812;46.480;6.834;2023-11-21T20:37:38;93574.31;;;21.72;44.92
48035;BME280;33812;46.480;6.834;2023-11-21T20:41:40;93575.97;;;21.70;44.86
48035;BME280;33812;46.480;6.834;2023-11-21T20:45:43;93580.19;;;21.74;45.08
48035;BME280;33812;46.480;6.834;2023-11-21T20:49:46;93579.19;;;21.68;44.97
48035;BME280;33812;46.480;6.834;2023-11-21T20:53:48;93581.38;;;21.73;44.86
48035;BME280;33812;46.480;6.834;2023-11-21T20:57:49;93587.25;;;21.76;44.66
48035;BME280;33812;46.480;6.834;2023-11-21T21:01:53;93589.69;;;21.73;44.91
48035;BME280;33812;46.480;6.834;2023-11-21T21:05:56;93587.56;;;21.78;44.69
48035;BME280;33812;46.480;6.834;2023-11-21T21:09:58;93588.66;;;21.93;43.90
48035;BME280;33812;46.480;6.834;2023-11-21T21:14:00;93587.25;;;21.89;44.63
48035;BME280;33812;46.480;6.834;2023-11-21T21:18:02;93581.84;;;21.85;44.83
48035;BME280;33812;46.480;6.834;2023-11-21T21:22:07;93580.94;;;21.88;44.30
48035;BME280;33812;46.480;6.834;2023-11-21T21:26:09;93584.03;;;21.90;44.25
48035;BME280;33812;46.480;6.834;2023-11-21T21:30:12;93596.19;;;21.93;44.32
48035;BME280;33812;46.480;6.834;2023-11-21T21:34:14;93587.13;;;21.92;44.25